Time;durP1;ratioP1;P1;durP2;ratioP2;P2;SDS_P1;SDS_P2;PMS_P1;PMS_P2;Temp;Humidity;BMP_temperature;BMP_pressure;BME280_temperature;BME280_humidity;BME280_pressure;Samples;Min_cycle;Max_cycle;Signal;HPM_P1;HPM_P2
2023/07/16 00:00:45;;;;;;;28.25;24.27;;;;;;;22.30;94.57;97819.38;10284407;28;20036;-49
2023/07/16 00:05:44;;;;;;;28.90;23.98;;;;;;;22.30;94.98;97816.72;10286028;28;20030;-51
2023/07/16 00:10:43;;;;;;;25.75;22.10;;;;;;;22.29;94.60;97814.16;10284955;28;20510;-51
2023/07/16 00:15:42;;;;;;;33.10;24.95;;;;;;;22.25;94.91;97805.53;10285792;28;20065;-50
2023/07/16 00:20:41;;;;;;;32.88;24.00;;;;;;;22.26;94.21;97807.22;10282958;28;20072;-50
2023/07/16 00:25:40;;;;;;;31.25;25.98;;;;;;;22.26;94.07;97795.78;10281685;28;20508;-50
2023/07/16 00:30:39;;;;;;;29.77;23.45;;;;;;;22.27;93.87;97792.22;10280140;28;20046;-50
2023/07/16 00:35:37;;;;;;;28.30;23.30;;;;;;;22.27;93.57;97805.44;10281291;28;20045;-52
2023/07/16 00:40:36;;;;;;;29.70;23.13;;;;;;;22.24;93.64;97806.44;10279931;28;20030;-51
2023/07/16 00:45:36;;;;;;;28.92;22.38;;;;;;;22.21;93.77;97808.38;10280874;28;20085;-49
2023/07/16 00:50:39;;;;;;;25.92;21.80;;;;;;;22.10;93.17;97775.38;10280357;28;20480;-51
2023/07/16 00:55:38;;;;;;;28.00;22.08;;;;;;;22.13;93.35;97800.78;10281078;28;20061;-49
2023/07/16 01:00:39;;;;;;;24.35;21.35;;;;;;;21.97;93.24;97785.63;10279380;28;20133;-52
2023/07/16 01:05:47;;;;;;;23.30;20.55;;;;;;;22.05;93.59;97795.03;10279863;28;20132;-52
2023/07/16 01:10:46;;;;;;;24.67;20.80;;;;;;;22.01;93.42;97796.94;10279073;28;20116;-52
2023/07/16 01:15:45;;;;;;;24.45;20.23;;;;;;;21.93;93.62;97799.06;10280786;28;20161;-53
2023/07/16 01:20:44;;;;;;;20.92;17.52;;;;;;;21.80;94.27;97793.47;10280334;28;20124;-51
2023/07/16 01:26:18;;;;;;;22.35;19.70;;;;;;;21.70;94.24;97781.63;10278268;28;20129;-51
2023/07/16 01:31:18;;;;;;;24.38;19.77;;;;;;;21.68;94.39;97780.81;10278576;28;20128;-50
2023/07/16 01:36:19;;;;;;;22.23;19.30;;;;;;;21.52;94.22;97757.78;10285148;28;20073;-52
2023/07/16 01:41:18;;;;;;;21.75;19.27;;;;;;;21.61;94.29;97774.09;10287476;28;20707;-51
2023/07/16 01:46:18;;;;;;;20.15;18.05;;;;;;;21.58;94.52;97776.91;10285445;28;20117;-52
2023/07/16 01:51:17;;;;;;;19.38;17.30;;;;;;;21.55;94.59;97772.63;10288089;28;20538;-52
2023/07/16 01:56:16;;;;;;;22.58;18.58;;;;;;;21.52;94.30;97773.63;10286019;28;20122;-52
2023/07/16 02:01:15;;;;;;;21.63;18.42;;;;;;;21.44;95.19;97765.16;10288501;28;20072;-50
2023/07/16 02:06:14;;;;;;;26.50;19.95;;;;;;;21.35;96.03;97768.22;10284801;28;20039;-49
2023/07/16 02:11:13;;;;;;;25.80;20.50;;;;;;;21.34;95.94;97764.72;10286686;28;20411;-52
2023/07/16 02:16:12;;;;;;;25.33;21.67;;;;;;;21.34;96.13;97763.88;10285739;28;20028;-50
2023/07/16 02:21:11;;;;;;;26.80;21.83;;;;;;;21.33;96.22;97763.00;10288423;28;20033;-53
2023/07/16 02:26:10;;;;;;;26.90;23.45;;;;;;;21.20;96.91;97751.25;10287032;28;20057;-52
2023/07/16 02:31:09;;;;;;;24.60;22.00;;;;;;;21.17;97.71;97751.34;10288928;28;20176;-51
2023/07/16 02:36:08;;;;;;;19.83;17.83;;;;;;;20.75;98.58;97744.41;10287051;28;20120;-53
2023/07/16 02:41:07;;;;;;;22.55;18.15;;;;;;;20.81;98.40;97778.41;10290157;28;20038;-53
2023/07/16 02:46:06;;;;;;;23.25;20.02;;;;;;;20.75;98.01;97768.13;10286861;28;20069;-52
2023/07/16 02:51:05;;;;;;;24.13;20.70;;;;;;;20.74;97.78;97765.56;10286395;28;20481;-51
2023/07/16 02:56:04;;;;;;;27.15;20.23;;;;;;;20.50;98.74;97778.81;10288660;28;20045;-53
2023/07/16 03:01:03;;;;;;;24.25;20.70;;;;;;;20.43;99.58;97785.28;10286973;28;20044;-51
2023/07/16 03:06:03;;;;;;;27.65;23.02;;;;;;;20.45;100.00;97784.28;10288144;28;20197;-51
2023/07/16 03:11:02;;;;;;;26.42;23.52;;;;;;;20.38;100.00;97787.22;10287453;28;20097;-49
2023/07/16 03:16:01;;;;;;;29.10;25.25;;;;;;;20.42;100.00;97784.41;10286029;28;20060;-52
2023/07/16 03:21:00;;;;;;;27.17;24.00;;;;;;;20.49;100.00;97790.28;10286099;28;20050;-49
2023/07/16 03:25:59;;;;;;;28.48;25.23;;;;;;;20.47;100.00;97785.09;10282547;28;20034;-50
2023/07/16 03:30:57;;;;;;;27.88;24.42;;;;;;;20.46;100.00;97787.78;10284719;28;20049;-50
2023/07/16 03:35:56;;;;;;;28.80;25.15;;;;;;;20.44;100.00;97800.16;10280572;28;20539;-51
2023/07/16 03:40:55;;;;;;;25.50;22.83;;;;;;;20.37;100.00;97798.66;10283634;28;20402;-50
2023/07/16 03:45:54;;;;;;;25.73;22.95;;;;;;;20.42;100.00;97799.34;10281429;28;20048;-50
2023/07/16 03:50:53;;;;;;;27.83;22.55;;;;;;;20.47;100.00;97802.69;10282830;28;20048;-51
2023/07/16 03:55:52;;;;;;;26.58;23.58;;;;;;;20.54;100.00;97808.53;10281688;28;20044;-51
2023/07/16 04:00:52;;;;;;;24.25;21.75;;;;;;;20.64;100.00;97816.03;10281488;28;20034;-50
2023/07/16 04:05:51;;;;;;;25.27;20.20;;;;;;;20.70;100.00;97807.88;10282474;28;20498;-53
2023/07/16 04:10:49;;;;;;;25.92;20.42;;;;;;;20.81;100.00;97811.84;10281095;28;20431;-50
2023/07/16 04:15:49;;;;;;;23.25;18.75;;;;;;;20.97;100.00;97812.06;10281668;28;20033;-50
2023/07/16 04:20:48;;;;;;;22.17;19.20;;;;;;;21.11;100.00;97815.84;10278509;28;20513;-49
2023/07/16 04:25:47;;;;;;;22.88;19.33;;;;;;;21.30;99.58;97815.06;10280368;28;20483;-50
2023/07/16 04:30:46;;;;;;;26.92;19.17;;;;;;;21.37;98.83;97820.94;10282217;28;20038;-50
2023/07/16 04:35:44;;;;;;;22.65;18.40;;;;;;;21.52;97.92;97810.59;10275785;28;20096;-49
2023/07/16 04:40:43;;;;;;;18.45;16.50;;;;;;;21.62;97.11;97815.47;10281836;28;20026;-51
2023/07/16 04:45:46;;;;;;;20.85;18.30;;;;;;;21.62;96.43;97792.53;10281218;28;20121;-50
2023/07/16 04:50:45;;;;;;;22.23;16.80;;;;;;;21.86;95.71;97824.91;10279754;28;20081;-51
2023/07/16 04:55:44;;;;;;;23.33;16.15;;;;;;;21.84;95.38;97816.19;10253030;28;20901;-51
2023/07/16 05:00:43;;;;;;;20.55;18.35;;;;;;;22.15;95.02;97830.66;10279565;28;20065;-51
2023/07/16 05:05:42;;;;;;;22.00;17.00;;;;;;;22.41;92.92;97833.84;10279268;28;20154;-50
2023/07/16 05:10:41;;;;;;;21.73;16.27;;;;;;;22.55;91.48;97839.34;10280808;28;20041;-50
2023/07/16 05:15:40;;;;;;;21.98;16.83;;;;;;;22.68;90.10;97837.81;10279792;28;20555;-51
2023/07/16 05:20:39;;;;;;;19.02;16.02;;;;;;;22.83;89.05;97838.88;10279393;28;20057;-51
2023/07/16 05:25:38;;;;;;;18.27;16.27;;;;;;;22.98;88.27;97832.84;10280550;28;20025;-50
2023/07/16 05:30:37;;;;;;;19.23;15.85;;;;;;;23.19;87.51;97830.91;10278835;28;20052;-51
2023/07/16 05:35:36;;;;;;;22.27;16.35;;;;;;;23.44;87.44;97827.84;10274274;28;20088;-52
2023/07/16 05:40:35;;;;;;;16.27;13.70;;;;;;;23.81;85.79;97827.72;10274858;28;20141;-53
2023/07/16 05:45:34;;;;;;;17.33;13.98;;;;;;;24.12;84.87;97831.38;10276733;28;20125;-53
2023/07/16 05:50:33;;;;;;;15.35;13.57;;;;;;;24.43;82.66;97823.47;10276593;28;20030;-53
2023/07/16 05:55:32;;;;;;;16.50;13.07;;;;;;;24.62;81.25;97820.63;10279454;28;20029;-51
2023/07/16 06:00:31;;;;;;;16.00;13.35;;;;;;;24.90;80.27;97825.22;10279170;28;20040;-49
2023/07/16 06:05:34;;;;;;;15.48;12.60;;;;;;;25.18;78.54;97828.94;10278127;28;20128;-53
2023/07/16 06:10:34;;;;;;;16.73;12.88;;;;;;;25.37;77.42;97830.50;10279675;28;20575;-52
2023/07/16 06:15:33;;;;;;;17.40;13.18;;;;;;;25.52;77.50;97817.13;10278718;28;20122;-51
2023/07/16 06:20:32;;;;;;;16.33;12.50;;;;;;;25.85;75.32;97828.47;10281597;28;20321;-52
2023/07/16 06:25:31;;;;;;;19.00;11.60;;;;;;;26.03;74.72;97824.66;10286231;28;20132;-50
2023/07/16 06:30:32;;;;;;;15.43;11.80;;;;;;;26.26;72.38;97833.03;10285205;28;20056;-52
2023/07/16 06:35:31;;;;;;;27.13;13.77;;;;;;;26.34;71.46;97831.56;10285949;28;20451;-52
2023/07/16 06:40:30;;;;;;;16.08;12.63;;;;;;;26.49;71.05;97824.44;10285750;28;20084;-53
2023/07/16 06:45:30;;;;;;;12.25;11.05;;;;;;;26.74;68.40;97821.00;10285573;28;20506;-52
2023/07/16 06:50:29;;;;;;;18.13;12.75;;;;;;;27.07;67.59;97811.75;10283515;28;20168;-53
2023/07/16 06:55:28;;;;;;;14.80;11.68;;;;;;;27.38;67.64;97812.38;10284786;28;20482;-49
2023/07/16 07:00:27;;;;;;;15.55;11.38;;;;;;;27.64;65.12;97810.59;10284568;28;20520;-50
2023/07/16 07:05:26;;;;;;;15.68;11.05;;;;;;;27.79;63.39;97790.84;10284347;28;20125;-52
2023/07/16 07:10:25;;;;;;;16.35;11.45;;;;;;;28.00;63.81;97808.94;10283564;28;20041;-53
2023/07/16 07:15:24;;;;;;;16.10;11.00;;;;;;;28.09;62.43;97802.97;10283876;28;20038;-53
2023/07/16 07:20:23;;;;;;;15.07;10.98;;;;;;;28.39;60.92;97801.75;10284367;28;20034;-53
2023/07/16 07:25:22;;;;;;;15.68;10.50;;;;;;;28.62;60.04;97806.25;10287258;28;20117;-53
2023/07/16 07:30:20;;;;;;;17.10;10.05;;;;;;;28.66;58.51;97796.16;10286598;28;20133;-53
2023/07/16 07:35:19;;;;;;;14.95;9.45;;;;;;;28.95;58.32;97801.22;10286935;28;20041;-52
2023/07/16 07:40:19;;;;;;;9.75;7.63;;;;;;;29.16;54.88;97788.88;10285141;28;20044;-52
2023/07/16 07:45:18;;;;;;;11.73;8.23;;;;;;;29.49;55.52;97796.16;10287079;28;20128;-52
2023/07/16 07:50:17;;;;;;;11.70;8.48;;;;;;;29.70;55.21;97788.28;10285627;28;20841;-51
2023/07/16 07:55:16;;;;;;;10.68;8.00;;;;;;;29.98;52.88;97787.94;10284308;28;20065;-52
2023/07/16 08:00:15;;;;;;;12.43;8.55;;;;;;;30.26;52.99;97787.41;10287140;28;20037;-52
2023/07/16 08:05:14;;;;;;;12.85;9.77;;;;;;;30.44;51.66;97793.13;10284276;28;20452;-52
2023/07/16 08:10:13;;;;;;;12.55;9.68;;;;;;;30.59;51.53;97791.03;10286747;28;20500;-52
2023/07/16 08:15:15;;;;;;;13.82;9.32;;;;;;;30.75;51.13;97782.59;10285070;28;20021;-51
2023/07/16 08:20:14;;;;;;;14.18;8.85;;;;;;;30.95;50.78;97783.56;10285056;28;20068;-52
2023/07/16 08:25:13;;;;;;;14.20;9.88;;;;;;;31.05;49.12;97787.19;10284643;28;20053;-52
2023/07/16 08:30:12;;;;;;;11.98;9.27;;;;;;;31.02;48.52;97792.00;10282617;28;20530;-53
2023/07/16 08:35:17;;;;;;;13.60;8.98;;;;;;;31.18;48.86;97793.22;10281278;28;20057;-49
2023/07/16 08:40:16;;;;;;;10.93;9.20;;;;;;;31.21;46.72;97786.75;10279411;28;20117;-51
2023/07/16 08:45:16;;;;;;;14.52;8.80;;;;;;;31.11;46.41;97780.50;10281326;28;20058;-52
2023/07/16 08:50:16;;;;;;;11.52;9.57;;;;;;;31.12;47.92;97769.66;10282696;28;20491;-51
2023/07/16 08:55:16;;;;;;;13.80;8.90;;;;;;;31.45;46.58;97782.97;10284765;28;20076;-52
2023/07/16 09:00:16;;;;;;;14.10;9.10;;;;;;;31.51;47.21;97761.00;10283439;28;21811;-54
2023/07/16 09:05:18;;;;;;;14.40;9.70;;;;;;;31.63;44.57;97773.34;10280107;28;20061;-52
2023/07/16 09:10:18;;;;;;;12.90;9.70;;;;;;;31.79;45.99;97765.66;10281179;28;20145;-51
2023/07/16 09:15:21;;;;;;;12.60;9.25;;;;;;;31.90;45.36;97775.47;10282664;28;20069;-51
2023/07/16 09:20:23;;;;;;;13.55;9.98;;;;;;;31.96;46.86;97766.84;10281913;28;20129;-50
2023/07/16 09:25:27;;;;;;;15.57;10.25;;;;;;;32.20;46.17;97769.25;10281477;28;20137;-52
2023/07/16 09:30:31;;;;;;;11.30;9.55;;;;;;;32.37;44.91;97751.59;10280225;28;20077;-52
2023/07/16 09:35:30;;;;;;;13.77;10.43;;;;;;;32.52;44.75;97762.78;10280790;28;20145;-52
2023/07/16 09:40:30;;;;;;;15.68;9.73;;;;;;;32.62;45.29;97768.19;10279102;28;20122;-53
2023/07/16 09:45:29;;;;;;;11.77;9.85;;;;;;;32.89;44.92;97758.59;10278097;28;20440;-52
2023/07/16 09:50:31;;;;;;;13.23;9.88;;;;;;;33.13;43.80;97755.47;10283883;28;20154;-54
2023/07/16 09:55:33;;;;;;;13.15;9.70;;;;;;;33.12;41.90;97753.81;10281571;28;20072;-52
2023/07/16 10:00:34;;;;;;;15.10;9.77;;;;;;;33.06;41.50;97753.31;10288075;28;20073;-52
2023/07/16 10:05:37;;;;;;;15.68;9.98;;;;;;;33.24;42.29;97753.47;10285065;28;20141;-52
2023/07/16 10:10:40;;;;;;;15.65;10.27;;;;;;;33.38;41.88;97744.09;10287843;28;20586;-52
2023/07/16 10:15:59;;;;;;;13.70;9.90;;;;;;;33.43;41.69;97741.81;10285040;28;20096;-51
2023/07/16 10:21:08;;;;;;;14.77;11.35;;;;;;;33.68;41.54;97745.75;10287271;28;20201;-52
2023/07/16 10:26:09;;;;;;;13.95;10.60;;;;;;;33.78;40.92;97739.47;10288894;28;20070;-51
2023/07/16 10:31:26;;;;;;;12.80;10.90;;;;;;;33.80;41.26;97719.47;10288345;28;20069;-52
2023/07/16 10:36:25;;;;;;;15.03;11.53;;;;;;;33.92;39.91;97725.50;10289154;28;20129;-49
2023/07/16 10:41:24;;;;;;;13.68;10.95;;;;;;;34.01;39.32;97731.84;10288752;28;20422;-52
2023/07/16 10:46:23;;;;;;;17.38;11.30;;;;;;;34.28;39.95;97736.38;10288602;28;20446;-51
2023/07/16 10:51:26;;;;;;;14.30;11.23;;;;;;;34.27;39.07;97737.41;10281789;28;20116;-52
2023/07/16 10:56:25;;;;;;;14.70;11.63;;;;;;;33.83;39.35;97738.00;10282016;28;20113;-50
2023/07/16 11:01:24;;;;;;;13.82;11.27;;;;;;;33.76;39.19;97725.31;10289307;28;20065;-52
2023/07/16 11:06:23;;;;;;;15.80;11.43;;;;;;;33.93;38.51;97726.34;10285175;28;20132;-51
2023/07/16 11:11:32;;;;;;;16.10;11.07;;;;;;;34.08;38.40;97720.31;10286827;28;20048;-52
2023/07/16 11:16:38;;;;;;;14.93;11.98;;;;;;;34.43;38.14;97717.88;10286500;28;20506;-52
2023/07/16 11:21:37;;;;;;;12.40;10.45;;;;;;;34.41;37.45;97725.25;10285696;28;20480;-51
2023/07/16 11:26:36;;;;;;;15.80;11.60;;;;;;;34.53;37.39;97712.41;10283487;28;20076;-52
2023/07/16 11:31:41;;;;;;;19.23;11.80;;;;;;;34.68;37.12;97713.56;10279145;28;20041;-51
2023/07/16 11:36:41;;;;;;;14.77;11.63;;;;;;;34.59;36.97;97712.63;10283106;28;20073;-52
2023/07/16 11:41:40;;;;;;;14.60;11.07;;;;;;;34.31;38.33;97714.56;10285165;28;20479;-52
2023/07/16 11:46:39;;;;;;;13.45;11.57;;;;;;;34.04;40.83;97710.84;10281555;28;20586;-51
2023/07/16 11:51:38;;;;;;;15.45;12.00;;;;;;;34.03;41.49;97706.47;10280079;28;20517;-52
2023/07/16 11:56:37;;;;;;;13.95;11.48;;;;;;;33.88;41.41;97707.97;10287408;28;20046;-51
2023/07/16 12:01:36;;;;;;;15.50;11.55;;;;;;;33.57;40.61;97699.31;10285405;28;20557;-49
2023/07/16 12:06:35;;;;;;;15.45;11.68;;;;;;;33.73;40.12;97709.47;10279332;28;20045;-49
2023/07/16 12:11:34;;;;;;;17.65;11.43;;;;;;;33.81;39.66;97666.50;10282180;28;20036;-53
2023/07/16 12:16:33;;;;;;;13.90;11.02;;;;;;;34.23;39.71;97682.13;10283041;28;20185;-52
2023/07/16 12:21:32;;;;;;;13.60;10.93;;;;;;;34.37;38.85;97713.91;10285136;28;20053;-52
2023/07/16 12:26:31;;;;;;;13.07;11.40;;;;;;;34.25;39.10;97705.22;10284407;28;20162;-52
2023/07/16 12:31:31;;;;;;;17.10;11.20;;;;;;;34.23;39.90;97707.22;10284144;28;20070;-53
2023/07/16 12:36:30;;;;;;;15.00;11.68;;;;;;;33.77;39.47;97700.06;10282756;28;20136;-52
2023/07/16 12:41:30;;;;;;;17.90;11.43;;;;;;;33.81;39.48;97712.25;10283153;28;20486;-54
2023/07/16 12:46:29;;;;;;;14.88;11.00;;;;;;;34.14;40.31;97707.28;10283644;28;20212;-52
2023/07/16 12:51:28;;;;;;;12.38;10.43;;;;;;;34.23;39.23;97707.22;10280430;28;20419;-51
2023/07/16 12:56:28;;;;;;;15.27;10.07;;;;;;;34.21;38.49;97681.44;10281285;28;20036;-53
2023/07/16 13:01:27;;;;;;;12.50;10.55;;;;;;;34.42;38.45;97673.06;10284232;28;20555;-52
2023/07/16 13:06:26;;;;;;;15.15;11.23;;;;;;;34.85;39.63;97699.25;10279329;28;20034;-52
2023/07/16 13:11:25;;;;;;;16.23;11.32;;;;;;;34.62;38.27;97692.66;10278494;28;20040;-53
2023/07/16 13:16:24;;;;;;;11.70;10.60;;;;;;;34.88;37.93;97701.63;10282555;28;20037;-52
2023/07/16 13:21:23;;;;;;;15.13;11.45;;;;;;;35.22;36.73;97692.81;10285403;28;20042;-53
2023/07/16 13:26:22;;;;;;;12.63;10.40;;;;;;;35.12;37.18;97692.03;10282558;28;20570;-51
2023/07/16 13:31:20;;;;;;;13.70;10.55;;;;;;;35.16;37.80;97692.59;10292607;28;20076;-52
2023/07/16 13:36:19;;;;;;;13.77;10.77;;;;;;;35.06;37.11;97703.44;10297545;28;20030;-52
2023/07/16 13:41:18;;;;;;;14.05;9.90;;;;;;;34.81;36.89;97688.94;10293828;28;20488;-52
2023/07/16 13:46:17;;;;;;;16.92;11.13;;;;;;;34.81;37.27;97695.16;10290561;28;20403;-53
2023/07/16 13:51:16;;;;;;;12.65;10.50;;;;;;;34.88;37.28;97690.81;10308323;28;20034;-51
2023/07/16 13:56:15;;;;;;;14.93;10.60;;;;;;;34.95;36.81;97684.81;10288004;28;20523;-53
2023/07/16 14:01:14;;;;;;;16.80;10.77;;;;;;;35.06;36.88;97690.81;10292179;28;20309;-52
2023/07/16 14:06:13;;;;;;;11.90;10.38;;;;;;;35.01;36.03;97659.91;10288298;28;20026;-52
2023/07/16 14:11:13;;;;;;;13.88;10.43;;;;;;;34.76;35.26;97575.34;10287620;28;20068;-52
2023/07/16 14:16:12;;;;;;;12.60;10.35;;;;;;;35.19;35.87;97673.38;10289696;28;20053;-52
2023/07/16 14:21:12;;;;;;;14.70;10.68;;;;;;;35.25;34.34;97681.69;10286440;28;20495;-52
2023/07/16 14:26:11;;;;;;;14.50;10.85;;;;;;;34.91;35.86;97633.03;10286938;28;20149;-52
2023/07/16 14:31:10;;;;;;;14.82;11.30;;;;;;;35.09;36.60;97665.38;10284790;28;20888;-52
2023/07/16 14:36:09;;;;;;;16.25;10.07;;;;;;;34.89;37.21;97680.88;10282766;28;20431;-52
2023/07/16 14:41:08;;;;;;;13.57;10.68;;;;;;;34.62;37.17;97671.09;10282723;28;20033;-52
2023/07/16 14:46:08;;;;;;;13.05;10.43;;;;;;;34.98;36.01;97676.41;10280914;28;20136;-52
2023/07/16 14:51:07;;;;;;;12.85;10.55;;;;;;;34.90;35.27;97674.50;10283817;28;20157;-51
2023/07/16 14:56:06;;;;;;;14.93;11.35;;;;;;;35.09;37.20;97659.97;10282370;28;20021;-49
2023/07/16 15:01:07;;;;;;;12.13;9.98;;;;;;;35.05;36.86;97661.28;10282640;28;20128;-53
2023/07/16 15:06:06;;;;;;;12.90;10.55;;;;;;;34.96;38.04;97667.63;10280043;28;20126;-54
2023/07/16 15:11:06;;;;;;;15.13;10.57;;;;;;;35.16;37.21;97671.00;10283959;28;20150;-53
2023/07/16 15:16:05;;;;;;;15.43;10.93;;;;;;;34.67;39.19;97682.25;10286461;28;20069;-53
2023/07/16 15:21:04;;;;;;;13.43;10.40;;;;;;;34.43;39.54;97662.13;10284444;28;20129;-52
2023/07/16 15:26:06;;;;;;;18.08;10.40;;;;;;;34.23;38.72;97636.34;10286937;28;20038;-53
2023/07/16 15:31:05;;;;;;;17.63;11.65;;;;;;;34.19;39.83;97678.91;10285419;28;20531;-52
2023/07/16 15:36:04;;;;;;;13.32;11.35;;;;;;;34.17;40.81;97690.81;10287805;28;20073;-51
2023/07/16 15:41:04;;;;;;;13.80;10.40;;;;;;;34.10;41.44;97690.56;10289461;28;20084;-50
2023/07/16 15:46:03;;;;;;;15.98;10.98;;;;;;;33.16;42.00;97542.75;10287799;28;20092;-50
2023/07/16 15:51:04;;;;;;;17.27;11.55;;;;;;;33.76;41.21;97698.41;10285995;28;20041;-53
2023/07/16 15:56:04;;;;;;;22.10;14.73;;;;;;;33.35;42.19;97687.03;10285949;28;20140;-52
2023/07/16 16:01:02;;;;;;;14.00;10.77;;;;;;;33.31;42.12;97688.34;10281776;28;20141;-53
2023/07/16 16:06:02;;;;;;;13.45;10.65;;;;;;;33.15;43.39;97684.44;10285400;28;20044;-53
2023/07/16 16:11:01;;;;;;;17.33;11.95;;;;;;;33.13;43.21;97680.19;10285225;28;20073;-52
2023/07/16 16:16:00;;;;;;;16.02;11.50;;;;;;;32.99;43.71;97686.84;10282747;28;20069;-51
2023/07/16 16:20:59;;;;;;;19.58;13.38;;;;;;;33.19;43.39;97696.59;10283218;28;20042;-52
2023/07/16 16:25:58;;;;;;;12.02;10.73;;;;;;;33.39;42.90;97696.53;10283437;28;20038;-52
2023/07/16 16:30:57;;;;;;;15.27;10.95;;;;;;;33.52;42.79;97699.75;10284172;28;20137;-53
2023/07/16 16:35:56;;;;;;;16.05;11.38;;;;;;;33.47;42.79;97684.03;10283842;28;20487;-53
2023/07/16 16:41:03;;;;;;;14.75;10.73;;;;;;;33.74;41.90;97701.22;10284052;28;20072;-53
2023/07/16 16:46:03;;;;;;;13.25;11.55;;;;;;;33.73;41.36;97709.47;10281560;28;20133;-53
2023/07/16 16:51:02;;;;;;;15.93;12.35;;;;;;;33.82;42.94;97708.56;10283950;28;20064;-52
2023/07/16 16:56:08;;;;;;;16.27;12.52;;;;;;;33.52;44.07;97675.53;10282704;28;20471;-51
2023/07/16 17:01:07;;;;;;;17.00;12.55;;;;;;;33.64;44.34;97708.50;10281965;28;20137;-53
2023/07/16 17:06:05;;;;;;;15.32;12.70;;;;;;;33.49;44.84;97702.75;10285165;28;20029;-52
2023/07/16 17:11:04;;;;;;;16.48;13.07;;;;;;;33.38;45.75;97713.69;10285253;28;20034;-52
2023/07/16 17:16:03;;;;;;;22.20;13.07;;;;;;;33.19;46.52;97707.34;10286384;28;20030;-53
2023/07/16 17:21:03;;;;;;;18.17;13.20;;;;;;;32.95;47.40;97712.31;10286687;28;20136;-52
2023/07/16 17:26:02;;;;;;;18.20;12.48;;;;;;;32.76;48.54;97708.66;10284602;28;20134;-53
2023/07/16 17:31:01;;;;;;;15.68;12.85;;;;;;;32.50;49.00;97707.50;10283266;28;20050;-53
2023/07/16 17:36:00;;;;;;;18.83;14.07;;;;;;;32.23;48.98;97703.66;10282175;28;20146;-51
2023/07/16 17:40:59;;;;;;;17.13;13.13;;;;;;;31.93;49.43;97713.44;10282236;28;20105;-53
2023/07/16 17:46:00;;;;;;;16.58;13.57;;;;;;;31.54;51.08;97707.94;10283301;28;20030;-52
2023/07/16 17:50:59;;;;;;;18.33;13.80;;;;;;;31.17;52.44;97700.41;10280786;28;20073;-52
2023/07/16 17:55:58;;;;;;;15.25;13.55;;;;;;;30.78;53.96;97703.78;10282828;28;20034;-53
2023/07/16 18:00:57;;;;;;;15.75;13.32;;;;;;;30.48;54.41;97705.38;10282128;28;20479;-53
2023/07/16 18:05:56;;;;;;;22.67;15.68;;;;;;;30.16;55.64;97716.84;10284646;28;20070;-52
2023/07/16 18:10:55;;;;;;;16.58;14.88;;;;;;;29.83;56.89;97723.94;10283773;28;20041;-51
2023/07/16 18:15:54;;;;;;;18.52;14.52;;;;;;;29.46;58.08;97729.56;10282017;28;21082;-52
2023/07/16 18:20:53;;;;;;;18.00;14.85;;;;;;;29.22;58.72;97745.63;10290945;28;20471;-52
2023/07/16 18:25:52;;;;;;;17.10;15.30;;;;;;;29.03;59.02;97740.00;10290413;28;20396;-52
2023/07/16 18:30:51;;;;;;;17.38;15.02;;;;;;;28.90;58.95;97745.47;10292666;28;20137;-52
2023/07/16 18:35:55;;;;;;;17.67;15.75;;;;;;;28.78;58.79;97755.25;10290745;28;20032;-52
2023/07/16 18:40:54;;;;;;;18.90;14.80;;;;;;;28.73;58.94;97756.53;10290207;28;20467;-52
2023/07/16 18:45:53;;;;;;;17.60;15.70;;;;;;;28.59;58.94;97755.72;10288863;28;20475;-51
2023/07/16 18:50:52;;;;;;;17.48;14.60;;;;;;;28.42;58.69;97762.31;10286969;28;20069;-52
2023/07/16 18:55:51;;;;;;;18.65;14.55;;;;;;;28.37;58.74;97768.97;10287080;28;20061;-52
2023/07/16 19:00:53;;;;;;;19.40;14.82;;;;;;;28.27;58.34;97771.47;10288261;28;20125;-52
2023/07/16 19:05:52;;;;;;;17.98;14.55;;;;;;;28.18;58.63;97780.97;10286781;28;20061;-52
2023/07/16 19:10:51;;;;;;;17.92;13.93;;;;;;;27.92;58.28;97763.31;10288544;28;20065;-51
2023/07/16 19:15:50;;;;;;;15.48;13.52;;;;;;;27.96;58.84;97791.44;10284789;28;20061;-52
2023/07/16 19:20:49;;;;;;;15.02;13.50;;;;;;;27.89;58.39;97790.19;10286783;28;20063;-52
2023/07/16 19:25:48;;;;;;;17.48;13.57;;;;;;;27.83;57.97;97796.81;10281785;28;20030;-52
2023/07/16 19:30:47;;;;;;;17.73;14.07;;;;;;;27.83;57.66;97803.00;10284140;28;20080;-52
2023/07/16 19:35:46;;;;;;;19.25;13.90;;;;;;;27.78;57.46;97801.63;10281434;28;20026;-51
2023/07/16 19:40:46;;;;;;;18.73;13.63;;;;;;;27.66;58.21;97800.69;10283263;28;20137;-53
2023/07/16 19:45:46;;;;;;;19.25;14.13;;;;;;;27.38;58.16;97770.56;10282214;28;20117;-51
2023/07/16 19:50:46;;;;;;;23.25;15.40;;;;;;;27.52;58.79;97812.28;10283235;28;20144;-54
2023/07/16 19:55:45;;;;;;;16.33;14.13;;;;;;;27.47;59.01;97811.75;10280332;28;20508;-50
2023/07/16 20:00:44;;;;;;;16.88;14.23;;;;;;;27.35;59.35;97808.09;10281885;28;20488;-53
2023/07/16 20:05:43;;;;;;;19.70;15.32;;;;;;;27.34;60.35;97806.38;10282826;28;20501;-51
2023/07/16 20:10:47;;;;;;;18.20;15.43;;;;;;;27.07;61.08;97778.94;10285358;28;20038;-51
2023/07/16 20:15:46;;;;;;;17.40;15.43;;;;;;;27.25;60.91;97807.00;10279928;28;20116;-50
2023/07/16 20:20:45;;;;;;;20.50;15.60;;;;;;;27.23;60.93;97806.25;10281500;28;20137;-51
2023/07/16 20:25:45;;;;;;;17.77;15.68;;;;;;;27.10;61.49;97794.75;10281797;28;20316;-51
2023/07/16 20:30:45;;;;;;;22.45;17.17;;;;;;;27.10;64.52;97808.91;10288825;28;20122;-52
2023/07/16 20:35:44;;;;;;;19.13;17.08;;;;;;;26.87;67.43;97818.44;10280436;28;20088;-52
2023/07/16 20:40:43;;;;;;;20.90;18.00;;;;;;;26.76;68.67;97818.25;10279959;28;20061;-51
2023/07/16 20:45:45;;;;;;;19.58;17.55;;;;;;;26.49;70.83;97824.44;10284175;28;20132;-51
2023/07/16 20:50:44;;;;;;;21.30;18.23;;;;;;;26.24;71.53;97787.06;10281598;28;20581;-52
2023/07/16 20:55:43;;;;;;;21.02;18.45;;;;;;;26.28;72.91;97828.47;10281439;28;20062;-52
2023/07/16 21:00:42;;;;;;;25.38;19.00;;;;;;;26.21;73.33;97822.69;10284403;28;20061;-51
2023/07/16 21:05:41;;;;;;;21.70;18.95;;;;;;;26.21;73.65;97835.13;10284329;28;20042;-54
2023/07/16 21:10:40;;;;;;;22.05;19.40;;;;;;;26.17;74.33;97829.97;10282028;28;20037;-50
2023/07/16 21:15:39;;;;;;;24.58;19.48;;;;;;;26.18;74.51;97836.13;10279829;28;20480;-49
2023/07/16 21:20:38;;;;;;;21.17;18.85;;;;;;;26.02;76.18;97836.25;10278891;28;20026;-50
2023/07/16 21:25:37;;;;;;;21.95;18.83;;;;;;;25.87;77.56;97837.22;10280271;28;20521;-53
2023/07/16 21:30:36;;;;;;;24.48;19.92;;;;;;;25.83;77.50;97823.25;10280043;28;20505;-51
2023/07/16 21:35:35;;;;;;;22.10;19.42;;;;;;;25.79;77.63;97834.19;10280349;28;20566;-52
2023/07/16 21:40:34;;;;;;;24.35;19.92;;;;;;;25.67;78.32;97833.13;10280314;28;20567;-50
2023/07/16 21:45:33;;;;;;;25.05;19.52;;;;;;;25.68;78.46;97832.16;10282317;28;20549;-53
2023/07/16 21:50:32;;;;;;;23.63;19.50;;;;;;;25.61;78.93;97829.03;10283425;28;20128;-50
2023/07/16 21:55:31;;;;;;;22.65;19.33;;;;;;;25.65;78.54;97832.38;10290677;28;20443;-51
2023/07/16 22:00:31;;;;;;;27.27;20.73;;;;;;;25.72;78.44;97829.22;10289880;28;20048;-53
2023/07/16 22:05:30;;;;;;;22.13;18.73;;;;;;;25.65;78.78;97830.56;10287327;28;20399;-53
2023/07/16 22:10:29;;;;;;;24.45;20.10;;;;;;;25.54;78.82;97835.66;10284724;28;20030;-50
2023/07/16 22:15:28;;;;;;;22.17;19.98;;;;;;;25.51;78.68;97835.81;10285576;28;20153;-53
2023/07/16 22:20:30;;;;;;;23.80;21.30;;;;;;;25.44;79.04;97834.50;10279747;28;20128;-53
2023/07/16 22:25:29;;;;;;;22.85;20.42;;;;;;;25.38;80.36;97845.47;10284026;28;20583;-52
2023/07/16 22:30:28;;;;;;;25.27;20.75;;;;;;;25.15;81.37;97822.94;10286495;28;20080;-51
2023/07/16 22:35:27;;;;;;;26.90;21.05;;;;;;;25.12;81.68;97842.56;10284942;28;20041;-52
2023/07/16 22:40:26;;;;;;;25.95;22.05;;;;;;;24.95;82.84;97832.94;10285653;28;20037;-51